Time;durP1;ratioP1;P1;durP2;ratioP2;P2;SDS_P1;SDS_P2;PMS_P1;PMS_P2;Temp;Humidity;BMP_temperature;BMP_pressure;BME280_temperature;BME280_humidity;BME280_pressure;Samples;Min_cycle;Max_cycle;Signal;HPM_P1;HPM_P2
2021/01/02 00:01:29;;;;;;;32.83;18.55;;;9.00;74.60;;;;;;4988252;28;20440;-69
2021/01/02 00:04:13;;;;;;;31.00;18.15;;;9.10;74.50;;;;;;4993134;28;20030;-71
2021/01/02 00:06:58;;;;;;;28.95;16.63;;;9.10;74.50;;;;;;4978567;28;20078;-70
2021/01/02 00:09:25;;;;;;;29.27;17.10;;;9.20;74.30;;;;;;4988035;28;20042;-70
2021/01/02 00:12:18;;;;;;;35.05;18.85;;;9.20;74.10;;;;;;4974916;28;20038;-69
2021/01/02 00:15:12;;;;;;;28.85;16.70;;;9.20;74.00;;;;;;4991616;28;20026;-69
2021/01/02 00:18:01;;;;;;;33.33;18.00;;;9.30;74.00;;;;;;4991307;28;20054;-70
2021/01/02 00:20:41;;;;;;;28.65;17.42;;;9.30;74.00;;;;;;4991641;28;20050;-71
2021/01/02 00:23:16;;;;;;;32.38;18.02;;;9.30;73.90;;;;;;5003909;28;20421;-69
2021/01/02 00:25:49;;;;;;;28.83;17.52;;;9.30;73.90;;;;;;4990888;28;20061;-70
2021/01/02 00:28:17;;;;;;;30.05;17.55;;;9.30;73.90;;;;;;4992203;28;20104;-70
2021/01/02 00:30:55;;;;;;;35.58;18.23;;;9.30;73.90;;;;;;4992466;28;20417;-69
2021/01/02 00:33:32;;;;;;;35.22;19.00;;;9.20;73.70;;;;;;4987453;28;20050;-70
2021/01/02 00:36:08;;;;;;;34.20;17.92;;;9.20;73.90;;;;;;4991020;28;20022;-70
2021/01/02 00:38:38;;;;;;;37.88;21.13;;;9.10;74.00;;;;;;4992624;28;20117;-71
2021/01/02 00:41:06;;;;;;;28.90;17.60;;;9.10;74.20;;;;;;4990680;28;20070;-70
2021/01/02 00:43:36;;;;;;;35.67;20.60;;;9.20;74.20;;;;;;4990108;28;20105;-70
2021/01/02 00:46:01;;;;;;;32.85;19.70;;;9.10;74.10;;;;;;4988661;28;20038;-69
2021/01/02 00:48:31;;;;;;;33.40;18.92;;;9.10;74.20;;;;;;4992414;28;20042;-70
2021/01/02 00:51:01;;;;;;;38.53;20.38;;;9.20;74.30;;;;;;4991172;28;20158;-70
2021/01/02 00:53:42;;;;;;;33.63;19.60;;;9.20;74.20;;;;;;4991018;28;20026;-69
2021/01/02 00:56:28;;;;;;;33.53;19.52;;;9.20;74.00;;;;;;4977278;28;20093;-71
2021/01/02 00:59:29;;;;;;;36.38;20.42;;;9.20;73.90;;;;;;4990142;28;20030;-69
2021/01/02 01:02:04;;;;;;;33.42;19.00;;;9.30;73.80;;;;;;4990734;28;20033;-70
2021/01/02 01:05:00;;;;;;;34.67;20.20;;;9.30;73.80;;;;;;4990311;28;20073;-69
2021/01/02 01:07:27;;;;;;;33.70;18.35;;;9.20;73.80;;;;;;4975577;28;20100;-70
2021/01/02 01:09:56;;;;;;;34.78;20.38;;;9.10;73.90;;;;;;4991308;28;20030;-70
2021/01/02 01:12:28;;;;;;;36.40;20.38;;;9.10;73.90;;;;;;4990440;28;20058;-70
2021/01/02 01:14:55;;;;;;;37.95;21.60;;;9.10;73.90;;;;;;4990592;28;20543;-69
2021/01/02 01:17:23;;;;;;;33.17;18.73;;;9.00;74.00;;;;;;4990666;28;20088;-71
2021/01/02 01:20:01;;;;;;;36.88;20.45;;;9.00;74.10;;;;;;4990609;28;20042;-70
2021/01/02 01:22:30;;;;;;;39.47;21.90;;;9.00;74.30;;;;;;4990047;28;20076;-69
2021/01/02 01:24:56;;;;;;;37.88;21.25;;;8.90;74.30;;;;;;4971043;28;20582;-69
2021/01/02 01:27:32;;;;;;;36.38;20.02;;;9.00;74.30;;;;;;4989575;28;20115;-70
2021/01/02 01:29:59;;;;;;;36.35;20.92;;;9.00;74.20;;;;;;4988094;28;20030;-69
2021/01/02 01:32:27;;;;;;;35.95;20.75;;;9.00;74.10;;;;;;4991171;28;20042;-69
2021/01/02 01:35:01;;;;;;;34.25;20.35;;;9.00;74.10;;;;;;4989467;28;20033;-70
2021/01/02 01:37:32;;;;;;;32.72;19.38;;;9.00;74.10;;;;;;4990202;28;20030;-69
2021/01/02 01:39:59;;;;;;;35.97;21.77;;;9.00;74.10;;;;;;4989567;28;20112;-69
2021/01/02 01:42:41;;;;;;;38.30;23.45;;;9.00;74.10;;;;;;4980235;28;20077;-69
2021/01/02 01:45:34;;;;;;;34.85;20.27;;;9.00;74.00;;;;;;4986835;28;20177;-70
2021/01/02 01:48:11;;;;;;;33.05;18.92;;;9.00;73.80;;;;;;4983782;28;20098;-70
2021/01/02 01:50:57;;;;;;;37.78;21.33;;;9.00;73.90;;;;;;4971432;28;20053;-69
2021/01/02 01:53:55;;;;;;;31.42;19.40;;;9.00;73.80;;;;;;4986221;28;20049;-69
2021/01/02 01:56:34;;;;;;;32.47;19.42;;;9.00;73.60;;;;;;4987496;28;20388;-69
2021/01/02 01:59:18;;;;;;;36.45;21.55;;;9.00;73.60;;;;;;4988460;28;20033;-70
2021/01/02 02:02:12;;;;;;;37.83;21.65;;;8.90;73.60;;;;;;4988363;28;20030;-70
2021/01/02 02:04:57;;;;;;;34.42;19.50;;;8.90;73.70;;;;;;4990347;28;20777;-69
2021/01/02 02:07:44;;;;;;;32.65;19.45;;;8.90;74.00;;;;;;4989538;28;20073;-69
2021/01/02 02:10:12;;;;;;;35.60;20.98;;;8.90;73.90;;;;;;4986430;28;20838;-69
2021/01/02 02:12:50;;;;;;;34.17;20.98;;;8.90;73.80;;;;;;4989259;28;20045;-69
2021/01/02 02:15:20;;;;;;;33.90;20.38;;;9.00;73.80;;;;;;4989941;28;20034;-70
2021/01/02 02:17:48;;;;;;;34.42;20.05;;;8.90;73.60;;;;;;4989631;28;20030;-69
2021/01/02 02:20:23;;;;;;;38.92;22.77;;;8.90;73.60;;;;;;4988304;28;20050;-69
2021/01/02 02:23:01;;;;;;;38.72;21.52;;;8.90;73.60;;;;;;4990965;28;20364;-69
2021/01/02 02:25:44;;;;;;;35.58;20.88;;;8.90;73.60;;;;;;4990758;28;20027;-70
2021/01/02 02:28:32;;;;;;;29.98;19.23;;;8.90;73.60;;;;;;4989400;28;20045;-69
2021/01/02 02:31:04;;;;;;;33.10;20.95;;;8.90;73.60;;;;;;4988782;28;20064;-69
2021/01/02 02:33:45;;;;;;;40.17;22.58;;;8.90;73.60;;;;;;4989358;28;20019;-70
2021/01/02 02:36:12;;;;;;;32.67;20.75;;;8.90;73.40;;;;;;4987316;28;20026;-70
2021/01/02 02:38:38;;;;;;;37.17;21.65;;;8.90;73.60;;;;;;4972696;28;20069;-70
2021/01/02 02:41:10;;;;;;;36.05;22.75;;;8.90;73.50;;;;;;4977000;28;20038;-70
2021/01/02 02:43:41;;;;;;;38.50;24.08;;;8.80;73.50;;;;;;4988828;28;20037;-70
2021/01/02 02:46:12;;;;;;;45.50;20.70;;;8.90;73.40;;;;;;4989628;28;20037;-69
2021/01/02 02:48:44;;;;;;;32.30;21.15;;;8.80;73.40;;;;;;4988497;28;20476;-69
2021/01/02 02:51:12;;;;;;;31.45;19.95;;;8.80;73.40;;;;;;4988718;28;20026;-70
2021/01/02 02:53:42;;;;;;;33.42;20.80;;;8.70;73.50;;;;;;4988996;28;20038;-70
2021/01/02 02:56:07;;;;;;;35.58;21.23;;;8.70;73.90;;;;;;4989449;28;20026;-69
2021/01/02 02:58:34;;;;;;;39.78;21.85;;;8.60;74.10;;;;;;4987581;28;20097;-69
2021/01/02 03:00:59;;;;;;;30.50;20.63;;;8.70;74.10;;;;;;4987572;28;20058;-69
2021/01/02 03:03:27;;;;;;;31.52;19.77;;;8.70;74.00;;;;;;4990244;28;20105;-69
2021/01/02 03:05:54;;;;;;;36.15;22.15;;;8.70;74.00;;;;;;4982565;28;20053;-70
2021/01/02 03:08:20;;;;;;;35.00;21.42;;;8.70;73.80;;;;;;4970084;28;20039;-69
2021/01/02 03:10:46;;;;;;;36.60;22.77;;;8.70;73.70;;;;;;4985075;28;20085;-70
2021/01/02 03:13:12;;;;;;;32.42;21.60;;;8.70;73.70;;;;;;4983080;28;20495;-70
2021/01/02 03:15:40;;;;;;;36.63;21.65;;;8.80;73.60;;;;;;4977621;28;20030;-69
2021/01/02 03:18:06;;;;;;;34.75;21.08;;;8.80;73.50;;;;;;4989750;28;20045;-69
2021/01/02 03:20:32;;;;;;;31.45;20.00;;;8.80;73.40;;;;;;4989873;28;20225;-70
2021/01/02 03:22:58;;;;;;;29.23;19.33;;;8.80;73.30;;;;;;4988831;28;20494;-69
2021/01/02 03:25:23;;;;;;;33.90;21.17;;;8.80;73.30;;;;;;4985709;28;20027;-69
2021/01/02 03:27:54;;;;;;;34.65;20.85;;;8.90;73.20;;;;;;4992702;28;20125;-69
2021/01/02 03:30:20;;;;;;;32.63;20.08;;;8.90;73.10;;;;;;4990353;28;20054;-69
2021/01/02 03:32:45;;;;;;;36.00;21.42;;;8.90;73.10;;;;;;4984960;28;20034;-70
2021/01/02 03:35:13;;;;;;;35.20;22.10;;;8.90;73.00;;;;;;4991883;28;20217;-69
2021/01/02 03:37:40;;;;;;;33.25;21.45;;;8.90;72.90;;;;;;4992650;28;20039;-70
2021/01/02 03:40:08;;;;;;;33.63;20.75;;;8.90;72.90;;;;;;4992868;28;20034;-69
2021/01/02 03:42:41;;;;;;;34.97;21.23;;;8.90;72.80;;;;;;4968922;28;20037;-69
2021/01/02 03:45:08;;;;;;;30.50;19.05;;;8.90;72.80;;;;;;4977746;28;20519;-70
2021/01/02 03:47:34;;;;;;;35.10;21.27;;;8.80;72.90;;;;;;4988630;28;20152;-69
2021/01/02 03:50:00;;;;;;;43.20;22.60;;;8.80;73.00;;;;;;4990807;28;20105;-70
2021/01/02 03:52:26;;;;;;;35.80;22.08;;;8.70;73.10;;;;;;4991027;28;20161;-69
2021/01/02 03:54:52;;;;;;;36.38;21.67;;;8.70;73.30;;;;;;4991933;28;20084;-70
2021/01/02 03:57:18;;;;;;;37.17;23.63;;;8.70;73.30;;;;;;4992626;28;20261;-70
2021/01/02 03:59:44;;;;;;;35.85;21.73;;;8.80;73.30;;;;;;4992203;28;20453;-70
2021/01/02 04:02:12;;;;;;;34.70;22.10;;;8.70;73.00;;;;;;4989341;28;20043;-70
2021/01/02 04:04:38;;;;;;;35.47;22.10;;;8.70;73.00;;;;;;4991821;28;20034;-69
2021/01/02 04:07:04;;;;;;;35.38;22.40;;;8.80;72.90;;;;;;4990277;28;20044;-70
2021/01/02 04:09:30;;;;;;;33.80;20.95;;;8.80;72.80;;;;;;4991946;28;20445;-70
2021/01/02 04:11:56;;;;;;;37.22;22.80;;;8.80;72.80;;;;;;4992156;28;20042;-69
2021/01/02 04:14:22;;;;;;;36.53;21.63;;;8.80;72.90;;;;;;4965291;28;20037;-70
2021/01/02 04:16:48;;;;;;;34.90;23.08;;;8.80;72.80;;;;;;4990893;28;20132;-70
2021/01/02 04:19:13;;;;;;;37.88;23.73;;;8.70;72.80;;;;;;4991605;28;20030;-69
2021/01/02 04:21:40;;;;;;;35.70;21.80;;;8.70;72.70;;;;;;4971291;28;20046;-69
2021/01/02 04:24:07;;;;;;;36.92;23.50;;;8.70;72.70;;;;;;4989646;28;20400;-69
2021/01/02 04:26:32;;;;;;;32.58;19.98;;;8.70;72.80;;;;;;4988963;28;20050;-70
2021/01/02 04:28:58;;;;;;;33.40;21.17;;;8.70;72.80;;;;;;4991862;28;20066;-70
2021/01/02 04:31:39;;;;;;;34.35;20.45;;;8.80;72.80;;;;;;4991816;28;20487;-70
2021/01/02 04:34:05;;;;;;;32.20;21.13;;;8.80;72.70;;;;;;4983885;28;20396;-70
2021/01/02 04:36:32;;;;;;;36.88;23.63;;;8.80;72.50;;;;;;4991100;28;20034;-70
2021/01/02 04:38:58;;;;;;;38.60;23.58;;;8.80;72.30;;;;;;4990396;28;20121;-69
2021/01/02 04:41:23;;;;;;;37.45;22.50;;;8.80;72.40;;;;;;4987464;28;20543;-70
2021/01/02 04:43:51;;;;;;;38.53;22.13;;;8.70;72.40;;;;;;4989041;28;20042;-69
2021/01/02 04:46:17;;;;;;;38.60;23.90;;;8.70;72.50;;;;;;4990377;28;20034;-69
2021/01/02 04:48:45;;;;;;;35.80;23.25;;;8.70;72.40;;;;;;4990604;28;20050;-69
2021/01/02 04:51:13;;;;;;;41.92;26.55;;;8.80;72.40;;;;;;4988345;28;20062;-69
2021/01/02 04:53:39;;;;;;;37.55;24.33;;;8.70;72.20;;;;;;4973268;28;20122;-69
2021/01/02 04:56:06;;;;;;;35.53;23.83;;;8.70;72.30;;;;;;4989388;28;20306;-70
2021/01/02 04:58:38;;;;;;;40.42;23.13;;;8.70;72.50;;;;;;4982509;28;20031;-69
2021/01/02 05:01:05;;;;;;;41.25;25.00;;;8.70;72.50;;;;;;4982850;28;20489;-70
2021/01/02 05:03:33;;;;;;;36.75;24.42;;;8.60;72.40;;;;;;4987997;28;20076;-69
2021/01/02 05:05:59;;;;;;;41.15;24.80;;;8.60;72.30;;;;;;4987888;28;20027;-69
2021/01/02 05:08:25;;;;;;;35.63;22.33;;;8.50;72.70;;;;;;4983730;28;20038;-69
2021/01/02 05:11:02;;;;;;;37.50;23.60;;;8.50;72.80;;;;;;4986276;28;20436;-69
2021/01/02 05:13:33;;;;;;;40.53;24.50;;;8.50;72.70;;;;;;4987657;28;20125;-69
2021/01/02 05:16:23;;;;;;;38.40;25.40;;;8.60;72.50;;;;;;4990566;28;20030;-69
2021/01/02 05:19:01;;;;;;;41.85;26.02;;;8.60;72.40;;;;;;4991461;28;20037;-69
2021/01/02 05:21:28;;;;;;;38.42;25.42;;;8.60;72.30;;;;;;4988167;28;20487;-69
2021/01/02 05:24:04;;;;;;;41.42;24.95;;;8.60;72.20;;;;;;4986637;28;20058;-69
2021/01/02 05:26:31;;;;;;;41.70;25.25;;;8.60;72.10;;;;;;4991139;28;20051;-70
2021/01/02 05:29:12;;;;;;;38.22;23.60;;;8.60;72.10;;;;;;4991150;28;20038;-70
2021/01/02 05:31:41;;;;;;;38.10;24.90;;;8.60;72.20;;;;;;4990427;28;20030;-69
2021/01/02 05:34:08;;;;;;;45.95;27.38;;;8.60;72.30;;;;;;4991607;28;20027;-69
2021/01/02 05:36:35;;;;;;;38.55;24.30;;;8.60;72.20;;;;;;4990763;28;20046;-69
2021/01/02 05:39:01;;;;;;;42.58;26.52;;;8.60;72.20;;;;;;4991450;28;20039;-69
2021/01/02 05:41:27;;;;;;;39.20;23.63;;;8.60;72.10;;;;;;4988792;28;20031;-69
2021/01/02 05:44:10;;;;;;;43.67;27.15;;;8.60;72.10;;;;;;4990524;28;20144;-69
2021/01/02 05:46:46;;;;;;;45.38;25.02;;;8.60;72.00;;;;;;4980721;28;20031;-70
2021/01/02 05:49:48;;;;;;;38.47;25.25;;;8.50;72.10;;;;;;4990653;28;20043;-68
2021/01/02 05:52:14;;;;;;;38.92;23.60;;;8.50;72.30;;;;;;4984025;28;20039;-70
2021/01/02 05:54:50;;;;;;;41.45;24.58;;;8.50;72.40;;;;;;4983289;28;20045;-69
2021/01/02 05:57:27;;;;;;;46.85;25.58;;;8.50;72.40;;;;;;4989573;28;20460;-69
2021/01/02 05:59:57;;;;;;;41.40;24.95;;;8.40;72.50;;;;;;4990077;28;20026;-69
2021/01/02 06:02:23;;;;;;;44.00;26.92;;;8.30;72.70;;;;;;4990805;28;20030;-69
2021/01/02 06:05:02;;;;;;;50.35;30.35;;;8.30;72.90;;;;;;4990150;28;20069;-69
2021/01/02 06:07:38;;;;;;;53.10;31.38;;;8.30;72.90;;;;;;4989863;28;20038;-70
2021/01/02 06:10:06;;;;;;;47.90;30.42;;;8.30;72.90;;;;;;4984432;28;20030;-70
2021/01/02 06:12:34;;;;;;;45.83;28.52;;;8.30;72.90;;;;;;4989874;28;20112;-69
2021/01/02 06:15:11;;;;;;;49.22;29.98;;;8.30;72.80;;;;;;4990649;28;20393;-69
2021/01/02 06:17:39;;;;;;;46.60;27.33;;;8.30;72.70;;;;;;4990198;28;20507;-68
2021/01/02 06:20:07;;;;;;;43.45;27.15;;;8.30;72.80;;;;;;4990321;28;20026;-70
2021/01/02 06:22:33;;;;;;;50.55;30.60;;;8.30;72.70;;;;;;4990059;28;20057;-70
2021/01/02 06:24:59;;;;;;;47.13;27.95;;;8.30;72.70;;;;;;4990015;28;20030;-69
2021/01/02 06:27:26;;;;;;;43.28;25.75;;;8.30;72.70;;;;;;4991306;28;20118;-70
2021/01/02 06:29:57;;;;;;;49.05;29.80;;;8.30;72.70;;;;;;4989873;28;20026;-69
2021/01/02 06:32:24;;;;;;;47.55;28.08;;;8.30;72.80;;;;;;4990208;28;20104;-69
2021/01/02 06:35:08;;;;;;;49.78;29.08;;;8.30;72.80;;;;;;4989743;28;20419;-69
2021/01/02 06:37:49;;;;;;;;;;;8.30;73.50;;;;;;4985396;28;20105;-70
2021/01/02 06:40:28;;;;;;;51.53;28.15;;;8.30;72.70;;;;;;4975871;28;19976;-69
2021/01/02 06:42:54;;;;;;;50.42;28.17;;;8.30;72.90;;;;;;4988078;28;20859;-70
2021/01/02 06:45:43;;;;;;;44.45;26.30;;;8.20;72.90;;;;;;4990070;28;20026;-69
2021/01/02 06:48:27;;;;;;;50.95;26.48;;;8.10;73.20;;;;;;4989209;28;20034;-69
2021/01/02 06:51:00;;;;;;;50.55;26.38;;;8.10;73.40;;;;;;4989021;28;20038;-70
2021/01/02 06:53:30;;;;;;;46.83;26.17;;;8.00;73.40;;;;;;4988066;28;20126;-69
2021/01/02 06:56:16;;;;;;;51.47;29.83;;;8.00;73.70;;;;;;4994390;28;20014;-69
2021/01/02 06:58:46;;;;;;;45.35;27.40;;;8.00;73.70;;;;;;4993174;28;20051;-69
2021/01/02 07:01:18;;;;;;;48.38;27.20;;;8.10;73.80;;;;;;4993491;28;20507;-69
2021/01/02 07:03:50;;;;;;;49.08;33.45;;;8.10;73.70;;;;;;4992664;28;20730;-70
2021/01/02 07:06:21;;;;;;;55.67;32.00;;;8.20;73.40;;;;;;4993103;28;20051;-69
2021/01/02 07:08:54;;;;;;;51.35;27.25;;;8.20;73.30;;;;;;4993924;28;20113;-69
2021/01/02 07:11:48;;;;;;;47.88;27.70;;;8.20;73.20;;;;;;4993640;28;20038;-69
2021/01/02 07:14:24;;;;;;;50.13;26.83;;;8.20;73.10;;;;;;4979940;28;20544;-69
2021/01/02 07:17:10;;;;;;;53.60;29.00;;;8.20;73.30;;;;;;4990712;28;20471;-69
2021/01/02 07:19:39;;;;;;;47.78;27.23;;;8.20;73.50;;;;;;4992581;28;20031;-69
2021/01/02 07:22:12;;;;;;;47.22;26.85;;;8.10;73.60;;;;;;4993619;28;20100;-70
2021/01/02 07:24:42;;;;;;;46.22;26.52;;;8.20;73.60;;;;;;4985418;28;20061;-69
2021/01/02 07:27:10;;;;;;;55.05;30.35;;;8.20;73.40;;;;;;4994155;28;20030;-69
2021/01/02 07:29:50;;;;;;;48.50;27.35;;;8.20;73.40;;;;;;4993361;28;20022;-68
2021/01/02 07:32:24;;;;;;;47.70;26.23;;;8.30;73.50;;;;;;4982952;28;20151;-69
2021/01/02 07:34:58;;;;;;;45.25;27.42;;;8.30;73.40;;;;;;4982220;28;20026;-69
2021/01/02 07:37:26;;;;;;;47.35;28.80;;;8.30;73.30;;;;;;4992059;28;20030;-69
2021/01/02 07:39:56;;;;;;;56.67;29.70;;;8.30;73.20;;;;;;4993998;28;20034;-70
2021/01/02 07:42:23;;;;;;;50.10;30.45;;;8.30;73.40;;;;;;4999866;28;20030;-70
2021/01/02 07:45:00;;;;;;;52.67;29.73;;;8.20;73.40;;;;;;4992857;28;20046;-69
2021/01/02 07:47:27;;;;;;;52.13;28.70;;;8.00;73.80;;;;;;4992750;28;20038;-70
2021/01/02 07:50:07;;;;;;;56.10;27.80;;;8.00;74.10;;;;;;4992345;28;20113;-70
2021/01/02 07:52:32;;;;;;;60.40;32.80;;;8.00;74.20;;;;;;4994693;28;20101;-69
2021/01/02 07:55:04;;;;;;;61.17;30.33;;;8.10;74.20;;;;;;4997560;28;20575;-70
2021/01/02 07:57:30;;;;;;;53.47;29.83;;;8.10;74.00;;;;;;4994725;28;20037;-69
2021/01/02 07:59:56;;;;;;;60.00;30.42;;;8.10;74.10;;;;;;4992483;28;20045;-70
2021/01/02 08:02:24;;;;;;;56.85;31.20;;;8.00;74.30;;;;;;4993044;28;20034;-69
2021/01/02 08:04:51;;;;;;;51.00;28.70;;;8.00;74.40;;;;;;4994310;28;20394;-69
2021/01/02 08:07:17;;;;;;;55.22;30.45;;;8.00;74.30;;;;;;5007282;28;20464;-69
2021/01/02 08:09:44;;;;;;;64.03;31.40;;;8.10;74.30;;;;;;5006022;28;20034;-69
2021/01/02 08:12:12;;;;;;;55.58;29.48;;;8.10;74.30;;;;;;4992519;28;20112;-69
2021/01/02 08:14:43;;;;;;;53.15;29.85;;;8.00;74.40;;;;;;4997802;28;20084;-69
2021/01/02 08:17:10;;;;;;;54.28;30.55;;;8.00;74.50;;;;;;4992889;28;20117;-70
2021/01/02 08:19:52;;;;;;;52.50;27.85;;;8.00;74.50;;;;;;4989594;28;20379;-70
2021/01/02 08:22:36;;;;;;;58.15;31.55;;;8.00;74.50;;;;;;4990001;28;20061;-71
2021/01/02 08:25:06;;;;;;;53.90;28.10;;;8.10;74.60;;;;;;4984169;28;20037;-71
2021/01/02 08:27:33;;;;;;;56.38;30.08;;;8.10;74.40;;;;;;4973271;28;20365;-70
2021/01/02 08:30:04;;;;;;;56.10;32.03;;;8.10;74.40;;;;;;4984616;28;20113;-71
2021/01/02 08:32:35;;;;;;;59.47;32.72;;;8.20;74.50;;;;;;4964305;28;20034;-74
2021/01/02 08:35:13;;;;;;;54.97;29.13;;;8.10;74.40;;;;;;4987581;28;20416;-75
2021/01/02 08:37:43;;;;;;;52.55;29.05;;;8.10;74.60;;;;;;4979704;28;20472;-75
2021/01/02 08:40:14;;;;;;;49.47;26.23;;;8.10;74.50;;;;;;4991207;28;20037;-75
2021/01/02 08:42:46;;;;;;;54.80;28.98;;;8.10;74.60;;;;;;4994262;28;20143;-70
2021/01/02 08:45:14;;;;;;;55.95;29.05;;;8.10;74.70;;;;;;4996387;28;20060;-75
2021/01/02 08:47:43;;;;;;;50.70;26.63;;;8.10;74.60;;;;;;4990222;28;20047;-74
2021/01/02 08:50:15;;;;;;;64.63;32.08;;;8.10;74.50;;;;;;4988427;28;20073;-73
2021/01/02 08:52:42;;;;;;;56.65;28.25;;;8.10;74.40;;;;;;4991232;28;20022;-73
2021/01/02 08:55:16;;;;;;;57.17;32.13;;;8.10;74.30;;;;;;4991448;28;20046;-72
2021/01/02 08:57:49;;;;;;;53.00;27.83;;;8.10;74.40;;;;;;4990578;28;20054;-72
2021/01/02 09:00:24;;;;;;;54.80;27.67;;;8.10;74.50;;;;;;4990075;28;20125;-72
2021/01/02 09:02:59;;;;;;;53.45;29.23;;;8.10;74.60;;;;;;4990072;28;20384;-71
2021/01/02 09:05:33;;;;;;;60.10;31.77;;;8.10;74.80;;;;;;4989246;28;20030;-71
2021/01/02 09:07:59;;;;;;;58.97;30.35;;;8.10;74.70;;;;;;4989707;28;20038;-73
2021/01/02 09:10:26;;;;;;;57.13;28.77;;;8.10;74.60;;;;;;4989339;28;20341;-73
2021/01/02 09:13:25;;;;;;;73.25;35.10;;;8.00;74.70;;;;;;4990891;28;20026;-72
2021/01/02 09:16:03;;;;;;;65.55;32.70;;;8.10;74.70;;;;;;4988571;28;20027;-72
2021/01/02 09:18:32;;;;;;;62.63;32.40;;;8.10;74.50;;;;;;4986310;28;20038;-72
2021/01/02 09:20:59;;;;;;;57.15;30.10;;;8.20;74.40;;;;;;4989622;28;20080;-71
2021/01/02 09:23:33;;;;;;;61.08;32.63;;;8.30;74.30;;;;;;4979789;28;20081;-71
2021/01/02 09:25:58;;;;;;;;;;;8.20;74.80;;;;;;4975405;28;20035;-71
2021/01/02 09:28:24;;;;;;;52.47;29.27;;;8.30;73.80;;;;;;4989038;28;20012;-69
2021/01/02 09:30:51;;;;;;;53.78;28.58;;;8.30;74.10;;;;;;4988577;28;20783;-70
2021/01/02 09:33:17;;;;;;;52.33;28.77;;;8.20;74.30;;;;;;4988735;28;20479;-70
2021/01/02 09:35:44;;;;;;;58.28;31.35;;;8.20;74.40;;;;;;4977143;28;20040;-71
2021/01/02 09:38:10;;;;;;;53.47;30.42;;;8.20;74.40;;;;;;4972957;28;20381;-71
2021/01/02 09:40:38;;;;;;;53.85;28.50;;;8.20;74.50;;;;;;4989580;28;20046;-70
2021/01/02 09:43:09;;;;;;;53.95;28.30;;;8.20;74.50;;;;;;4999963;28;20062;-70
2021/01/02 09:45:35;;;;;;;53.80;27.67;;;8.20;74.50;;;;;;4989393;28;20042;-70
2021/01/02 09:48:00;;;;;;;53.42;28.92;;;8.20;74.50;;;;;;4990360;28;20101;-71
2021/01/02 09:50:26;;;;;;;64.80;29.40;;;8.20;74.50;;;;;;4989921;28;20484;-71
2021/01/02 09:52:52;;;;;;;54.60;28.90;;;8.20;74.60;;;;;;4990357;28;20038;-71
2021/01/02 09:55:18;;;;;;;60.30;30.65;;;8.20;74.70;;;;;;4988907;28;20030;-71
2021/01/02 09:57:51;;;;;;;58.20;29.92;;;8.20;74.50;;;;;;4995478;28;20096;-71
2021/01/02 10:00:18;;;;;;;58.17;30.55;;;8.30;74.50;;;;;;5008768;28;20376;-71
2021/01/02 10:02:44;;;;;;;51.13;27.48;;;8.30;74.60;;;;;;4989230;28;20035;-71
2021/01/02 10:05:14;;;;;;;55.78;29.00;;;8.30;74.60;;;;;;4989475;28;20038;-71
2021/01/02 10:07:40;;;;;;;55.22;29.45;;;8.30;74.50;;;;;;4989624;28;20416;-71
2021/01/02 10:10:06;;;;;;;51.20;30.50;;;8.40;74.40;;;;;;4990450;28;20049;-71
2021/01/02 10:12:32;;;;;;;64.05;30.80;;;8.40;74.20;;;;;;4993197;28;20113;-71
2021/01/02 10:14:58;;;;;;;55.10;30.50;;;8.40;74.10;;;;;;5009920;28;20612;-71
2021/01/02 10:17:27;;;;;;;59.78;29.92;;;8.40;74.00;;;;;;4991596;28;20035;-70
2021/01/02 10:19:53;;;;;;;65.05;29.70;;;8.40;74.00;;;;;;4989912;28;20030;-71
2021/01/02 10:22:19;;;;;;;60.90;29.77;;;8.40;74.20;;;;;;4989581;28;20081;-71
2021/01/02 10:24:54;;;;;;;55.42;28.13;;;8.50;74.20;;;;;;4990669;28;20062;-71
2021/01/02 10:27:21;;;;;;;64.13;32.10;;;8.50;74.00;;;;;;4999142;28;20034;-71
2021/01/02 10:29:50;;;;;;;61.70;30.88;;;8.50;73.90;;;;;;5005484;28;20117;-71
2021/01/02 10:32:18;;;;;;;53.63;29.27;;;8.60;73.70;;;;;;4993127;28;20027;-71
2021/01/02 10:34:48;;;;;;;55.40;27.83;;;8.50;73.70;;;;;;4993608;28;20046;-70
2021/01/02 10:37:15;;;;;;;59.08;30.65;;;8.50;73.60;;;;;;4991656;28;20113;-70
2021/01/02 10:39:42;;;;;;;53.67;27.10;;;8.50;73.70;;;;;;4992977;28;20034;-71
2021/01/02 10:42:08;;;;;;;52.60;27.92;;;8.50;73.60;;;;;;5007063;28;20119;-71
2021/01/02 10:44:34;;;;;;;61.17;29.88;;;8.70;73.70;;;;;;4982639;28;20433;-70
2021/01/02 10:47:00;;;;;;;53.13;27.48;;;8.50;73.50;;;;;;4994041;28;20038;-71
2021/01/02 10:49:26;;;;;;;59.78;30.73;;;8.50;73.50;;;;;;4993768;28;20042;-71
2021/01/02 10:51:52;;;;;;;52.40;25.80;;;8.40;73.80;;;;;;4995543;28;20448;-71
2021/01/02 10:54:20;;;;;;;58.20;28.83;;;8.40;74.00;;;;;;5003975;28;20120;-71
2021/01/02 10:56:48;;;;;;;58.90;30.15;;;8.40;74.00;;;;;;4993071;28;20035;-71
2021/01/02 10:59:15;;;;;;;58.67;30.13;;;8.40;74.00;;;;;;4993503;28;20038;-72
2021/01/02 11:01:46;;;;;;;59.67;30.35;;;8.50;74.00;;;;;;4992070;28;20036;-71
2021/01/02 11:04:14;;;;;;;63.03;31.35;;;8.50;73.70;;;;;;4992934;28;20420;-71
2021/01/02 11:06:42;;;;;;;56.05;30.80;;;8.60;73.70;;;;;;4992590;28;20038;-71
2021/01/02 11:09:13;;;;;;;54.05;28.45;;;8.60;73.50;;;;;;4976500;28;20372;-71
2021/01/02 11:11:39;;;;;;;56.45;29.30;;;8.70;73.50;;;;;;4987204;28;20034;-71
2021/01/02 11:14:05;;;;;;;59.53;33.17;;;8.70;73.60;;;;;;4984272;28;20034;-70
2021/01/02 11:16:57;;;;;;;57.95;28.85;;;8.60;73.70;;;;;;4991536;28;20462;-71
2021/01/02 11:19:25;;;;;;;56.42;29.15;;;8.50;73.70;;;;;;4988480;28;20118;-70
2021/01/02 11:21:53;;;;;;;55.60;28.50;;;8.50;73.80;;;;;;4986084;28;20057;-70
2021/01/02 11:24:22;;;;;;;61.53;30.05;;;8.60;73.80;;;;;;4991142;28;20792;-70
2021/01/02 11:26:51;;;;;;;61.90;30.63;;;8.60;73.80;;;;;;4986646;28;20022;-70
2021/01/02 11:29:18;;;;;;;56.13;28.52;;;8.60;73.70;;;;;;4986676;28;20464;-70
2021/01/02 11:31:44;;;;;;;58.50;30.50;;;8.70;73.60;;;;;;4986890;28;20106;-70
2021/01/02 11:34:11;;;;;;;57.92;29.40;;;8.70;73.50;;;;;;4989713;28;20118;-70
2021/01/02 11:36:37;;;;;;;63.90;28.10;;;8.70;73.40;;;;;;4987383;28;20037;-70
2021/01/02 11:39:04;;;;;;;58.60;28.95;;;8.80;73.30;;;;;;4988511;28;20030;-70
2021/01/02 11:41:37;;;;;;;54.80;28.40;;;8.80;73.10;;;;;;4989318;28;20035;-70
2021/01/02 11:44:05;;;;;;;54.58;30.42;;;8.80;73.00;;;;;;4980256;28;20042;-70
2021/01/02 11:46:35;;;;;;;51.47;27.95;;;8.80;73.10;;;;;;4989166;28;20180;-70
2021/01/02 11:49:00;;;;;;;54.83;29.85;;;8.80;73.10;;;;;;4991187;28;20434;-70
2021/01/02 11:51:26;;;;;;;53.03;26.80;;;8.70;73.10;;;;;;4989871;28;20042;-70
2021/01/02 11:53:52;;;;;;;54.92;29.00;;;8.60;73.50;;;;;;4990477;28;21277;-70
2021/01/02 11:56:21;;;;;;;53.25;26.45;;;8.50;73.80;;;;;;4990606;28;20029;-71
2021/01/02 11:58:47;;;;;;;49.60;27.38;;;8.50;74.00;;;;;;4990207;28;20053;-70
2021/01/02 12:01:13;;;;;;;53.60;27.25;;;8.60;74.10;;;;;;4964176;28;20038;-70
2021/01/02 12:03:38;;;;;;;52.83;29.58;;;8.70;74.00;;;;;;4985502;28;20116;-70
2021/01/02 12:06:04;;;;;;;53.35;25.90;;;8.70;73.60;;;;;;4987133;28;20052;-70
2021/01/02 12:08:30;;;;;;;61.70;28.55;;;8.80;73.40;;;;;;4989892;28;20054;-71
2021/01/02 12:10:55;;;;;;;47.58;25.58;;;8.90;73.40;;;;;;4969609;28;20069;-71
2021/01/02 12:13:21;;;;;;;50.97;24.98;;;8.90;73.20;;;;;;4988144;28;20110;-71
2021/01/02 12:15:49;;;;;;;54.55;27.52;;;8.80;73.20;;;;;;4985934;28;20064;-72
2021/01/02 12:18:15;;;;;;;41.15;23.42;;;8.70;73.60;;;;;;4988890;28;20042;-71
2021/01/02 12:20:40;;;;;;;39.40;22.52;;;8.60;73.70;;;;;;4982447;28;20503;-71
2021/01/02 12:23:06;;;;;;;42.47;21.00;;;8.60;73.60;;;;;;4986573;28;20373;-72
2021/01/02 12:25:32;;;;;;;41.28;22.17;;;8.50;73.70;;;;;;4971397;28;20035;-72
2021/01/02 12:27:58;;;;;;;45.28;24.00;;;8.40;74.10;;;;;;4983006;28;20027;-72
2021/01/02 12:30:28;;;;;;;54.42;26.98;;;8.40;74.40;;;;;;4985722;28;20027;-72
2021/01/02 12:32:55;;;;;;;49.88;26.10;;;8.40;74.30;;;;;;4980178;28;20030;-72
2021/01/02 12:35:22;;;;;;;42.75;23.55;;;8.40;74.40;;;;;;4987457;28;20026;-70
2021/01/02 12:37:47;;;;;;;51.03;25.52;;;8.50;74.40;;;;;;4988536;28;20030;-70
2021/01/02 12:40:13;;;;;;;50.78;25.20;;;8.60;74.20;;;;;;4985726;28;20032;-70
2021/01/02 12:42:39;;;;;;;51.17;24.85;;;8.60;73.80;;;;;;4985694;28;20446;-70
2021/01/02 12:45:07;;;;;;;47.05;24.92;;;8.60;73.60;;;;;;4987331;28;20137;-70
2021/01/02 12:47:33;;;;;;;47.25;24.00;;;8.70;73.60;;;;;;4985879;28;20046;-70
2021/01/02 12:49:59;;;;;;;50.72;25.33;;;8.70;73.70;;;;;;4967148;28;20482;-71
2021/01/02 12:52:29;;;;;;;47.42;26.08;;;8.60;73.90;;;;;;4982239;28;20030;-72
2021/01/02 12:54:57;;;;;;;52.13;26.65;;;8.70;73.80;;;;;;4981565;28;20069;-72
2021/01/02 12:57:23;;;;;;;49.30;25.83;;;8.70;73.60;;;;;;4981684;28;20073;-72